createdAt,value
2023-05-02T00:00:36.396Z,15.55
2023-05-02T00:01:36.358Z,15.55
2023-05-02T00:02:36.417Z,15.52
2023-05-02T00:03:36.470Z,15.51
2023-05-02T00:04:36.482Z,15.51
2023-05-02T00:05:37.311Z,15.47
2023-05-02T00:06:36.393Z,15.49
2023-05-02T00:07:36.305Z,15.46
2023-05-02T00:08:36.328Z,15.44
2023-05-02T00:09:36.268Z,15.43
2023-05-02T00:10:37.190Z,15.40
2023-05-02T00:11:36.252Z,15.39
2023-05-02T00:12:36.257Z,15.39
2023-05-02T00:13:36.223Z,15.39
2023-05-02T00:14:36.251Z,15.37
2023-05-02T00:15:36.230Z,15.35
2023-05-02T00:16:37.155Z,15.31
2023-05-02T00:17:36.186Z,15.29
2023-05-02T00:18:36.184Z,15.29
2023-05-02T00:19:36.133Z,15.29
2023-05-02T00:20:36.177Z,15.29
2023-05-02T00:21:36.143Z,15.29
2023-05-02T00:22:37.056Z,15.29
2023-05-02T00:23:36.119Z,15.28
2023-05-02T00:24:36.076Z,15.25
2023-05-02T00:25:36.094Z,15.21
2023-05-02T00:26:36.075Z,15.21
2023-05-02T00:27:37.010Z,15.19
2023-05-02T00:28:36.035Z,15.18
2023-05-02T00:29:36.077Z,15.17
2023-05-02T00:30:36.016Z,15.15
2023-05-02T00:31:36.130Z,15.18
2023-05-02T00:32:36.081Z,15.17
2023-05-02T00:33:36.934Z,15.15
2023-05-02T00:34:35.963Z,15.15
2023-05-02T00:35:35.940Z,15.15
2023-05-02T00:36:35.954Z,15.07
2023-05-02T00:37:35.942Z,15.03
2023-05-02T00:38:36.849Z,15.02
2023-05-02T00:39:35.878Z,14.99
2023-05-02T00:40:35.914Z,14.99
2023-05-02T00:41:35.873Z,15.00
2023-05-02T00:42:35.839Z,15.00
2023-05-02T00:43:35.845Z,15.00
2023-05-02T00:44:36.742Z,15.00
2023-05-02T00:45:35.821Z,15.02
2023-05-02T00:46:35.924Z,15.03
2023-05-02T00:47:35.883Z,15.04
2023-05-02T00:48:35.792Z,15.02
2023-05-02T00:49:36.680Z,15.00
2023-05-02T00:50:35.784Z,14.94
2023-05-02T00:51:35.736Z,14.91
2023-05-02T00:52:35.713Z,14.86
2023-05-02T00:53:35.735Z,14.81
2023-05-02T00:54:35.706Z,14.77
2023-05-02T00:55:36.633Z,14.72
2023-05-02T00:56:35.656Z,14.70
2023-05-02T00:57:35.664Z,14.66
2023-05-02T00:58:35.645Z,14.63
2023-05-02T00:59:35.624Z,14.66
2023-05-02T01:00:35.645Z,14.65
2023-05-02T01:01:36.600Z,14.65
2023-05-02T01:02:35.783Z,14.66
2023-05-02T01:03:35.732Z,14.66
2023-05-02T01:04:35.572Z,14.66
2023-05-02T01:05:35.612Z,14.63
2023-05-02T01:06:35.704Z,14.63
2023-05-02T01:07:36.488Z,14.62
2023-05-02T01:08:35.570Z,14.62
2023-05-02T01:09:35.525Z,14.63
2023-05-02T01:10:35.498Z,14.63
2023-05-02T01:11:35.563Z,14.62
2023-05-02T01:12:35.506Z,14.59
2023-05-02T01:13:36.427Z,14.63
2023-05-02T01:14:35.480Z,14.66
2023-05-02T01:15:35.470Z,14.69
2023-05-02T01:16:35.551Z,14.72
2023-05-02T01:17:35.427Z,14.73
2023-05-02T01:18:36.317Z,14.77
2023-05-02T01:19:35.402Z,14.78
2023-05-02T01:20:35.330Z,14.79
2023-05-02T01:21:35.378Z,14.82
2023-05-02T01:22:35.329Z,14.85
2023-05-02T01:23:36.420Z,14.91
2023-05-02T01:24:35.346Z,14.94
2023-05-02T01:25:35.332Z,14.99
2023-05-02T01:26:35.279Z,15.00
2023-05-02T01:27:35.262Z,15.03
2023-05-02T01:28:35.259Z,15.02
2023-05-02T01:29:36.223Z,15.00
2023-05-02T01:30:35.311Z,14.97
2023-05-02T01:31:35.408Z,14.97
2023-05-02T01:32:35.220Z,14.96
2023-05-02T01:33:35.182Z,14.97
2023-05-02T01:34:35.174Z,14.94
2023-05-02T01:35:36.157Z,14.92
2023-05-02T01:36:35.204Z,14.92
2023-05-02T01:37:35.160Z,14.91
2023-05-02T01:38:35.184Z,14.89
2023-05-02T01:39:35.144Z,14.92
2023-05-02T01:40:36.046Z,14.96
2023-05-02T01:41:35.085Z,14.97
2023-05-02T01:42:35.102Z,14.96
2023-05-02T01:43:35.113Z,14.96
2023-05-02T01:44:35.065Z,14.99
2023-05-02T01:45:35.044Z,15.00
2023-05-02T01:46:36.042Z,14.99
2023-05-02T01:47:35.033Z,14.99
2023-05-02T01:48:34.998Z,14.97
2023-05-02T01:49:35.037Z,14.99
2023-05-02T01:50:34.981Z,14.97
2023-05-02T01:51:35.890Z,14.97
2023-05-02T01:52:34.945Z,14.99
2023-05-02T01:53:34.978Z,14.96
2023-05-02T01:54:34.995Z,14.96
2023-05-02T01:55:35.039Z,14.94
2023-05-02T01:56:35.850Z,14.96
2023-05-02T01:57:34.882Z,14.97
2023-05-02T01:58:34.863Z,15.00
2023-05-02T01:59:34.925Z,15.00
2023-05-02T02:00:34.880Z,15.00
2023-05-02T02:01:35.853Z,15.00
2023-05-02T02:02:34.863Z,15.03
2023-05-02T02:03:34.859Z,15.06
2023-05-02T02:04:34.969Z,15.07
2023-05-02T02:05:34.800Z,15.06
2023-05-02T02:06:34.801Z,15.07
2023-05-02T02:07:35.712Z,15.06
2023-05-02T02:08:34.754Z,15.03
2023-05-02T02:09:34.762Z,15.02
2023-05-02T02:10:34.755Z,15.02
2023-05-02T02:11:34.710Z,14.99
2023-05-02T02:12:35.631Z,15.00
2023-05-02T02:13:34.729Z,14.99
2023-05-02T02:14:34.695Z,14.96
2023-05-02T02:15:34.696Z,14.91
2023-05-02T02:16:34.709Z,14.88
2023-05-02T02:17:35.615Z,14.86
2023-05-02T02:18:34.603Z,14.85
2023-05-02T02:19:34.654Z,14.82
2023-05-02T02:20:34.608Z,14.78
2023-05-02T02:21:34.576Z,14.78
2023-05-02T02:22:35.491Z,14.78
2023-05-02T02:23:34.596Z,14.79
2023-05-02T02:24:34.563Z,14.79
2023-05-02T02:25:34.554Z,14.79
2023-05-02T02:26:34.520Z,14.79
2023-05-02T02:27:35.465Z,14.78
2023-05-02T02:28:34.479Z,14.77
2023-05-02T02:29:34.506Z,14.78
2023-05-02T02:30:34.509Z,14.78
2023-05-02T02:31:34.662Z,14.79
2023-05-02T02:32:35.416Z,14.78
2023-05-02T02:33:34.465Z,14.81
2023-05-02T02:34:34.442Z,14.79
2023-05-02T02:35:34.439Z,14.79
2023-05-02T02:36:34.368Z,14.73
2023-05-02T02:37:34.475Z,14.69
2023-05-02T02:38:35.323Z,14.65
2023-05-02T02:39:34.401Z,14.62
2023-05-02T02:40:34.340Z,14.58
2023-05-02T02:41:34.393Z,14.53
2023-05-02T02:42:34.392Z,14.54
2023-05-02T02:43:35.225Z,14.53
2023-05-02T02:44:34.281Z,14.54
2023-05-02T02:45:34.347Z,14.53
2023-05-02T02:46:34.412Z,14.51
2023-05-02T02:47:34.258Z,14.50
2023-05-02T02:48:35.185Z,14.48
2023-05-02T02:49:34.215Z,14.44
2023-05-02T02:50:34.257Z,14.43
2023-05-02T02:51:34.508Z,14.43
2023-05-02T02:52:34.216Z,14.43
2023-05-02T02:53:34.174Z,14.41
2023-05-02T02:54:35.072Z,14.40
2023-05-02T02:55:34.153Z,14.41
2023-05-02T02:56:34.141Z,14.40
2023-05-02T02:57:34.118Z,14.41
2023-05-02T02:58:34.102Z,14.41
2023-05-02T02:59:35.002Z,14.41
2023-05-02T03:00:34.086Z,14.41
2023-05-02T03:01:34.164Z,14.41
2023-05-02T03:02:34.128Z,14.43
2023-05-02T03:03:34.069Z,14.41
2023-05-02T03:04:34.051Z,14.40
2023-05-02T03:05:34.972Z,14.37
2023-05-02T03:06:34.040Z,14.37
2023-05-02T03:07:33.979Z,14.35
2023-05-02T03:08:33.990Z,14.33
2023-05-02T03:09:34.050Z,14.33
2023-05-02T03:10:33.979Z,14.30
2023-05-02T03:11:34.912Z,14.30
2023-05-02T03:12:33.935Z,14.29
2023-05-02T03:13:33.956Z,14.29
2023-05-02T03:14:33.880Z,14.30
2023-05-02T03:15:33.885Z,14.30
2023-05-02T03:16:34.044Z,14.29
2023-05-02T03:17:34.795Z,14.26
2023-05-02T03:18:33.871Z,14.22
2023-05-02T03:19:33.840Z,14.17
2023-05-02T03:20:33.863Z,14.11
2023-05-02T03:21:33.890Z,14.10
2023-05-02T03:22:33.833Z,14.07
2023-05-02T03:23:34.786Z,14.03
2023-05-02T03:24:33.772Z,13.97
2023-05-02T03:25:33.774Z,13.90
2023-05-02T03:26:33.803Z,13.85
2023-05-02T03:27:33.721Z,13.79
2023-05-02T03:28:33.722Z,13.75
2023-05-02T03:29:34.671Z,13.75
2023-05-02T03:30:33.673Z,13.72
2023-05-02T03:31:33.818Z,13.74
2023-05-02T03:32:33.761Z,13.74
2023-05-02T03:33:33.698Z,13.75
2023-05-02T03:34:34.550Z,13.75
2023-05-02T03:35:33.647Z,13.77
2023-05-02T03:36:33.665Z,13.78
2023-05-02T03:37:33.603Z,13.81
2023-05-02T03:38:33.610Z,13.81
2023-05-02T03:39:34.557Z,13.81
2023-05-02T03:40:33.550Z,13.83
2023-05-02T03:41:33.575Z,13.86
2023-05-02T03:42:33.598Z,13.81
2023-05-02T03:43:33.512Z,13.78
2023-05-02T03:44:34.533Z,13.75
2023-05-02T03:45:33.558Z,13.72
2023-05-02T03:46:33.550Z,13.72
2023-05-02T03:47:33.477Z,13.74
2023-05-02T03:48:33.464Z,13.75
2023-05-02T03:49:33.477Z,13.74
2023-05-02T03:50:34.435Z,13.72
2023-05-02T03:51:33.419Z,13.71
2023-05-02T03:52:33.506Z,13.68
2023-05-02T03:53:33.453Z,13.70
2023-05-02T03:54:33.412Z,13.68
2023-05-02T03:55:34.312Z,13.70
2023-05-02T03:56:33.380Z,13.70
2023-05-02T03:57:33.358Z,13.68
2023-05-02T03:58:33.566Z,13.65
2023-05-02T03:59:33.337Z,13.67
2023-05-02T04:00:34.263Z,13.68
2023-05-02T04:01:33.402Z,13.68
2023-05-02T04:02:33.359Z,13.68
2023-05-02T04:03:33.380Z,13.70
2023-05-02T04:04:33.302Z,13.68
2023-05-02T04:05:34.236Z,13.67
2023-05-02T04:06:33.295Z,13.65
2023-05-02T04:07:33.297Z,13.63
2023-05-02T04:08:33.324Z,13.60
2023-05-02T04:09:33.186Z,13.57
2023-05-02T04:10:34.248Z,13.54
2023-05-02T04:11:34.107Z,13.52
2023-05-02T04:12:33.128Z,13.46
2023-05-02T04:13:33.168Z,13.42
2023-05-02T04:14:33.145Z,13.39
2023-05-02T04:15:33.119Z,13.35
2023-05-02T04:16:33.115Z,13.31
2023-05-02T04:17:34.148Z,13.31
2023-05-02T04:18:33.178Z,13.31
2023-05-02T04:19:33.045Z,13.30
2023-05-02T04:20:33.099Z,13.31
2023-05-02T04:21:33.016Z,13.30
2023-05-02T04:22:33.020Z,13.31
2023-05-02T04:23:33.944Z,13.30
2023-05-02T04:24:33.060Z,13.35
2023-05-02T04:25:32.968Z,13.38
2023-05-02T04:26:32.993Z,13.42
2023-05-02T04:27:32.941Z,13.42
2023-05-02T04:28:33.943Z,13.42
2023-05-02T04:29:33.031Z,13.44
2023-05-02T04:30:32.939Z,13.46
2023-05-02T04:31:32.960Z,13.49
2023-05-02T04:32:32.925Z,13.49
2023-05-02T04:33:32.910Z,13.52
2023-05-02T04:34:33.809Z,13.52
2023-05-02T04:35:32.888Z,13.54
2023-05-02T04:36:32.851Z,13.56
2023-05-02T04:37:32.872Z,13.56
2023-05-02T04:38:32.825Z,13.57
2023-05-02T04:39:32.793Z,13.56
2023-05-02T04:40:33.789Z,13.57
2023-05-02T04:41:32.779Z,13.57
2023-05-02T04:42:32.751Z,13.57
2023-05-02T04:43:32.760Z,13.54
2023-05-02T04:44:32.735Z,13.53
2023-05-02T04:45:32.746Z,13.54
2023-05-02T04:46:33.768Z,13.54
2023-05-02T04:48:15.153Z,13.56
2023-05-02T04:49:15.113Z,13.54
2023-05-02T04:50:15.171Z,13.56
2023-05-02T04:51:17.182Z,13.54
2023-05-02T04:52:15.287Z,13.54
2023-05-02T04:53:15.125Z,13.56
2023-05-02T04:54:15.118Z,13.56
2023-05-02T04:55:15.050Z,13.59
2023-05-02T04:56:15.079Z,13.59
2023-05-02T04:57:15.983Z,13.57
2023-05-02T04:58:15.022Z,13.54
2023-05-02T04:59:15.014Z,13.53
2023-05-02T05:00:14.987Z,13.47
2023-05-02T05:01:15.109Z,13.46
2023-05-02T05:02:16.016Z,13.46
2023-05-02T05:03:14.989Z,13.46
2023-05-02T05:04:15.096Z,13.47
2023-05-02T05:05:14.997Z,13.50
2023-05-02T05:06:14.977Z,13.49
2023-05-02T05:07:15.819Z,13.46
2023-05-02T05:08:14.884Z,13.44
2023-05-02T05:09:14.893Z,13.39
2023-05-02T05:10:14.833Z,13.37
2023-05-02T05:11:15.069Z,13.33
2023-05-02T05:12:14.840Z,13.31
2023-05-02T05:13:15.740Z,13.30
2023-05-02T05:14:14.800Z,13.30
2023-05-02T05:15:14.794Z,13.33
2023-05-02T05:16:14.846Z,13.35
2023-05-02T05:17:14.797Z,13.35
2023-05-02T05:18:14.791Z,13.33
2023-05-02T05:19:15.660Z,13.35
2023-05-02T05:20:14.738Z,13.31
2023-05-02T05:21:14.707Z,13.31
2023-05-02T05:22:14.694Z,13.31
2023-05-02T05:23:14.680Z,13.31
2023-05-02T05:24:14.719Z,13.31
2023-05-02T05:25:15.634Z,13.31
2023-05-02T05:26:14.630Z,13.31
2023-05-02T05:27:14.626Z,13.30
2023-05-02T05:28:14.664Z,13.28
2023-05-02T05:29:14.602Z,13.28
2023-05-02T05:30:14.626Z,13.30
2023-05-02T05:31:16.839Z,13.30
2023-05-02T05:32:14.756Z,13.31
2023-05-02T05:33:14.599Z,13.28
2023-05-02T05:34:14.646Z,13.22
2023-05-02T05:35:14.587Z,13.19
2023-05-02T05:36:15.498Z,13.18
2023-05-02T05:37:14.514Z,13.13
2023-05-02T05:38:14.551Z,13.13
2023-05-02T05:39:14.523Z,13.13
2023-05-02T05:40:14.499Z,13.12
2023-05-02T05:41:15.381Z,13.13
2023-05-02T05:42:14.457Z,13.15
2023-05-02T05:43:14.410Z,13.15
2023-05-02T05:44:14.455Z,13.15
2023-05-02T05:45:14.415Z,13.16
2023-05-02T05:46:15.328Z,13.18
2023-05-02T05:47:14.429Z,13.18
2023-05-02T05:48:14.411Z,13.19
2023-05-02T05:49:14.348Z,13.22
2023-05-02T05:50:14.351Z,13.25
2023-05-02T05:51:14.349Z,13.28
2023-05-02T05:52:15.326Z,13.33
2023-05-02T05:53:14.304Z,13.37
2023-05-02T05:54:14.293Z,13.39
2023-05-02T05:55:14.341Z,13.41
2023-05-02T05:56:14.258Z,13.44
2023-05-02T05:57:14.260Z,13.41
2023-05-02T05:58:15.169Z,13.39
2023-05-02T05:59:14.320Z,13.38
2023-05-02T06:00:14.313Z,13.38
2023-05-02T06:01:14.294Z,13.39
2023-05-02T06:02:14.262Z,13.41
2023-05-02T06:03:14.291Z,13.42
2023-05-02T06:04:15.157Z,13.47
2023-05-02T06:05:14.305Z,13.49
2023-05-02T06:06:14.165Z,13.52
2023-05-02T06:07:14.149Z,13.56
2023-05-02T06:08:14.135Z,13.59
2023-05-02T06:09:14.163Z,13.67
2023-05-02T06:10:15.031Z,13.70
2023-05-02T06:11:14.108Z,13.74
2023-05-02T06:12:14.052Z,13.75
2023-05-02T06:13:14.082Z,13.75
2023-05-02T06:14:14.133Z,13.72
2023-05-02T06:15:14.022Z,13.74
2023-05-02T06:16:15.159Z,13.78
2023-05-02T06:17:14.025Z,13.81
2023-05-02T06:18:14.062Z,13.83
2023-05-02T06:19:14.021Z,13.89
2023-05-02T06:20:14.394Z,13.93
2023-05-02T06:23:49.306Z,14.14
2023-05-02T06:24:49.287Z,14.17
2023-05-02T06:25:49.333Z,14.23
2023-05-02T06:26:49.263Z,14.25
2023-05-02T06:27:49.307Z,14.26
2023-05-02T06:28:49.239Z,14.26
2023-05-02T06:29:50.194Z,14.30
2023-05-02T06:30:49.202Z,14.33
2023-05-02T06:31:49.253Z,14.36
2023-05-02T06:32:49.235Z,14.43
2023-05-02T06:33:49.143Z,14.44
2023-05-02T06:34:49.147Z,14.48
2023-05-02T06:35:50.081Z,14.51
2023-05-02T06:36:49.192Z,14.55
2023-05-02T06:37:49.162Z,14.58
2023-05-02T06:38:49.217Z,14.58
2023-05-02T06:39:49.077Z,14.62
2023-05-02T06:40:49.104Z,14.66
2023-05-02T06:41:50.099Z,14.68
2023-05-02T06:42:49.092Z,14.70
2023-05-02T06:43:49.040Z,14.72
2023-05-02T06:44:49.033Z,14.72
2023-05-02T06:45:49.006Z,14.73
2023-05-02T06:46:49.115Z,14.78
2023-05-02T06:47:50.009Z,14.79
2023-05-02T06:48:48.954Z,14.84
2023-05-02T06:49:48.961Z,14.81
2023-05-02T06:50:48.981Z,14.81
2023-05-02T06:51:48.999Z,14.78
2023-05-02T06:52:48.945Z,14.79
2023-05-02T06:53:49.829Z,14.82
2023-05-02T06:54:48.968Z,14.85
2023-05-02T06:55:48.863Z,14.88
2023-05-02T06:56:48.916Z,14.89
2023-05-02T06:57:48.874Z,14.91
2023-05-02T06:58:49.783Z,14.97
2023-05-02T06:59:48.818Z,15.02
2023-05-02T07:00:48.998Z,15.02
2023-05-02T07:01:48.862Z,15.00
2023-05-02T07:02:48.840Z,15.02
2023-05-02T07:03:48.802Z,15.02
2023-05-02T07:04:49.673Z,15.03
2023-05-02T07:05:48.792Z,15.03
2023-05-02T07:06:48.928Z,15.02
2023-05-02T07:07:48.757Z,15.00
2023-05-02T07:08:48.712Z,15.03
2023-05-02T07:09:48.725Z,15.03
2023-05-02T07:10:49.639Z,15.03
2023-05-02T07:11:49.675Z,15.07
2023-05-02T07:12:49.338Z,15.06
2023-05-02T07:13:48.724Z,15.10
2023-05-02T07:14:48.706Z,15.11
2023-05-02T07:15:49.574Z,15.14
2023-05-02T07:16:48.698Z,15.15
2023-05-02T07:17:48.645Z,15.22
2023-05-02T07:18:48.594Z,15.24
2023-05-02T07:19:48.589Z,15.25
2023-05-02T07:20:48.553Z,15.27
2023-05-02T07:21:49.480Z,15.29
2023-05-02T07:22:48.505Z,15.33
2023-05-02T07:23:48.697Z,15.35
2023-05-02T07:24:48.555Z,15.35
2023-05-02T07:25:48.531Z,15.36
2023-05-02T07:26:48.505Z,15.42
2023-05-02T07:27:49.427Z,15.46
2023-05-02T07:28:48.468Z,15.54
2023-05-02T07:29:48.447Z,15.59
2023-05-02T07:30:48.432Z,15.65
2023-05-02T07:31:48.517Z,15.73
2023-05-02T07:32:48.485Z,15.77
2023-05-02T07:33:49.325Z,15.83
2023-05-02T07:34:48.376Z,15.80
2023-05-02T07:35:48.383Z,15.80
2023-05-02T07:36:48.379Z,15.76
2023-05-02T07:37:48.342Z,15.75
2023-05-02T07:38:48.331Z,15.75
2023-05-02T07:39:49.245Z,15.72
2023-05-02T07:40:48.361Z,15.68
2023-05-02T07:41:48.271Z,15.61
2023-05-02T07:42:48.307Z,15.54
2023-05-02T07:43:48.255Z,15.51
2023-05-02T07:44:48.302Z,15.49
2023-05-02T07:45:49.234Z,15.43
2023-05-02T07:46:48.413Z,15.37
2023-05-02T07:47:48.246Z,15.33
2023-05-02T07:48:48.221Z,15.31
2023-05-02T07:49:48.170Z,15.31
2023-05-02T07:50:49.116Z,15.33
2023-05-02T07:51:48.161Z,15.31
2023-05-02T07:52:48.149Z,15.36
2023-05-02T07:53:48.155Z,15.40
2023-05-02T07:54:48.134Z,15.40
2023-05-02T07:55:49.078Z,15.43
2023-05-02T07:56:48.121Z,15.46
2023-05-02T07:57:48.091Z,15.51
2023-05-02T07:58:48.065Z,15.51
2023-05-02T07:59:48.055Z,15.52
2023-05-02T08:00:48.963Z,15.54
2023-05-02T08:01:48.034Z,15.54
2023-05-02T08:02:48.180Z,15.52
2023-05-02T08:03:48.113Z,15.55
2023-05-02T08:04:48.076Z,15.52
2023-05-02T08:05:48.939Z,15.51
2023-05-02T08:06:48.053Z,15.47
2023-05-02T08:07:47.992Z,15.46
2023-05-02T08:08:47.921Z,15.42
2023-05-02T08:09:47.911Z,15.35
2023-05-02T08:10:48.867Z,15.28
2023-05-02T08:11:47.889Z,15.19
2023-05-02T08:12:47.930Z,15.09
2023-05-02T08:13:47.848Z,15.03
2023-05-02T08:14:47.867Z,15.04
2023-05-02T08:15:47.942Z,14.94
2023-05-02T08:16:48.930Z,14.88
2023-05-02T08:17:47.939Z,14.85
2023-05-02T08:18:47.816Z,14.82
2023-05-02T08:19:47.832Z,14.84
2023-05-02T08:20:47.798Z,15.00
2023-05-02T08:21:47.791Z,15.18
2023-05-02T08:22:48.680Z,15.27
2023-05-02T08:23:47.814Z,15.31
2023-05-02T08:24:47.751Z,15.31
2023-05-02T08:25:47.712Z,15.39
2023-05-02T08:26:47.713Z,15.49
2023-05-02T08:27:48.689Z,15.61
2023-05-02T08:28:47.672Z,15.65
2023-05-02T08:29:47.704Z,15.72
2023-05-02T08:30:47.736Z,15.79
2023-05-02T08:31:47.667Z,15.82
2023-05-02T08:32:48.619Z,15.83
2023-05-02T08:33:47.618Z,15.75
2023-05-02T08:34:47.634Z,15.67
2023-05-02T08:35:47.579Z,15.55
2023-05-02T08:36:47.567Z,15.44
2023-05-02T08:37:47.622Z,15.39
2023-05-02T08:38:48.534Z,15.37
2023-05-02T08:39:47.554Z,15.33
2023-05-02T08:40:47.526Z,15.31
2023-05-02T08:41:47.537Z,15.24
2023-05-02T08:42:47.515Z,15.19
2023-05-02T08:43:47.541Z,15.22
2023-05-02T08:44:48.423Z,15.27
2023-05-02T08:45:47.461Z,15.29
2023-05-02T08:46:47.585Z,15.24
2023-05-02T08:47:47.478Z,15.14
2023-05-02T08:48:47.455Z,15.02
2023-05-02T08:49:47.436Z,14.92
2023-05-02T08:50:48.540Z,14.85
2023-05-02T08:51:47.400Z,14.84
2023-05-02T08:52:47.364Z,14.84
2023-05-02T08:53:47.360Z,14.84
2023-05-02T08:54:47.369Z,14.88
2023-05-02T08:55:48.576Z,14.88
2023-05-02T08:56:47.362Z,14.89
2023-05-02T08:57:47.297Z,14.85
2023-05-02T08:58:47.333Z,14.77
2023-05-02T08:59:47.344Z,14.69
2023-05-02T09:00:47.269Z,14.65
2023-05-02T09:01:54.427Z,14.63
2023-05-02T09:02:47.311Z,14.66
2023-05-02T09:03:47.729Z,14.72
2023-05-02T09:04:47.283Z,14.78
2023-05-02T09:05:47.193Z,14.84
2023-05-02T09:06:47.343Z,14.92
2023-05-02T09:07:48.114Z,15.02
2023-05-02T09:08:47.611Z,15.11
2023-05-02T09:09:47.119Z,15.24
2023-05-02T09:10:47.150Z,15.28
2023-05-02T09:11:47.131Z,15.25
2023-05-02T09:12:47.102Z,15.25
2023-05-02T09:13:48.214Z,15.22
2023-05-02T09:14:47.130Z,15.21
2023-05-02T09:15:47.088Z,15.22
2023-05-02T09:16:47.065Z,15.27
2023-05-02T09:17:47.059Z,15.29
2023-05-02T09:18:47.062Z,15.29
2023-05-02T09:19:47.945Z,15.29
2023-05-02T09:20:47.007Z,15.29
2023-05-02T09:21:46.985Z,15.29
2023-05-02T09:22:46.968Z,15.27
2023-05-02T09:23:47.036Z,15.25
2023-05-02T09:24:46.974Z,15.24
2023-05-02T09:25:47.902Z,15.22
2023-05-02T09:26:46.976Z,15.24
2023-05-02T09:27:46.950Z,15.22
2023-05-02T09:28:46.927Z,15.25
2023-05-02T09:29:46.887Z,15.27
2023-05-02T09:30:46.961Z,15.28
2023-05-02T09:31:55.492Z,15.29
2023-05-02T09:32:48.367Z,15.35
2023-05-02T09:33:46.892Z,15.39
2023-05-02T09:34:46.822Z,15.43
2023-05-02T09:35:46.862Z,15.51
2023-05-02T09:36:46.797Z,15.57
2023-05-02T09:37:47.707Z,15.62
2023-05-02T09:38:46.856Z,15.65
2023-05-02T09:39:46.745Z,15.72
2023-05-02T09:40:46.778Z,15.75
2023-05-02T09:41:46.838Z,15.79
2023-05-02T09:42:46.767Z,15.83
2023-05-02T09:43:47.640Z,15.86
2023-05-02T09:44:46.691Z,15.92
2023-05-02T09:45:46.728Z,16.01
2023-05-02T09:46:46.646Z,16.10
2023-05-02T09:47:46.661Z,16.20
2023-05-02T09:48:46.631Z,16.31
2023-05-02T09:49:47.576Z,16.35
2023-05-02T09:50:46.615Z,16.36
2023-05-02T09:51:46.593Z,16.35
2023-05-02T09:52:46.668Z,16.32
2023-05-02T09:53:46.622Z,16.31
2023-05-02T09:54:46.997Z,16.28
2023-05-02T09:55:47.543Z,16.29
2023-05-02T09:56:46.542Z,16.29
2023-05-02T09:57:46.503Z,16.28
2023-05-02T09:58:46.528Z,16.17
2023-05-02T09:59:46.499Z,16.12
2023-05-02T10:00:46.491Z,16.08
2023-05-02T10:01:47.392Z,16.02
2023-05-02T10:02:46.465Z,15.97
2023-05-02T10:03:46.460Z,15.92
2023-05-02T10:04:46.462Z,15.91
2023-05-02T10:05:46.433Z,15.88
2023-05-02T10:06:46.545Z,15.83
2023-05-02T10:07:47.320Z,15.76
2023-05-02T10:08:46.415Z,15.68
2023-05-02T10:09:46.377Z,15.70
2023-05-02T10:10:46.373Z,15.68
2023-05-02T10:11:46.355Z,15.64
2023-05-02T10:12:46.320Z,15.55
2023-05-02T10:13:47.231Z,15.42
2023-05-02T10:14:46.305Z,15.36
2023-05-02T10:15:46.319Z,15.24
2023-05-02T10:16:46.274Z,15.19
2023-05-02T10:17:46.322Z,15.18
2023-05-02T10:18:46.234Z,15.21
2023-05-02T10:19:47.174Z,15.27
2023-05-02T10:20:46.243Z,15.37
2023-05-02T10:21:46.230Z,15.47
2023-05-02T10:22:46.219Z,15.51
2023-05-02T10:23:46.276Z,15.54
2023-05-02T10:24:47.128Z,15.57
2023-05-02T10:25:46.202Z,15.54
2023-05-02T10:26:46.156Z,15.49
2023-05-02T10:27:46.160Z,15.40
2023-05-02T10:28:46.836Z,15.37
2023-05-02T10:29:47.057Z,15.36
2023-05-02T10:30:46.105Z,15.28
2023-05-02T10:31:46.163Z,15.14
2023-05-02T10:32:46.071Z,14.99
2023-05-02T10:33:46.062Z,14.82
2023-05-02T10:34:46.033Z,14.60
2023-05-02T10:35:46.952Z,14.47
2023-05-02T10:36:45.999Z,14.43
2023-05-02T10:37:46.054Z,14.40
2023-05-02T10:38:46.018Z,14.36
2023-05-02T10:39:45.982Z,14.45
2023-05-02T10:40:45.962Z,14.54
2023-05-02T10:41:46.858Z,14.63
2023-05-02T10:42:46.077Z,14.70
2023-05-02T10:43:45.948Z,14.70
2023-05-02T10:44:45.953Z,14.72
2023-05-02T10:45:45.881Z,14.73
2023-05-02T10:46:45.906Z,14.79
2023-05-02T10:48:44.908Z,14.94
2023-05-02T10:49:44.904Z,14.92
2023-05-02T10:50:44.934Z,14.82
2023-05-02T10:51:44.816Z,14.77
2023-05-02T10:52:45.722Z,14.69
2023-05-02T10:53:44.907Z,14.65
2023-05-02T10:54:44.799Z,14.59
2023-05-02T10:55:44.913Z,14.54
2023-05-02T10:56:44.922Z,14.48
2023-05-02T10:57:45.695Z,14.48
2023-05-02T10:58:44.784Z,14.55
2023-05-02T10:59:44.741Z,14.58
2023-05-02T11:00:44.720Z,14.55
2023-05-02T11:01:44.789Z,14.53
2023-05-02T11:02:44.802Z,14.50
2023-05-02T11:03:45.672Z,14.43
2023-05-02T11:04:44.733Z,14.33
2023-05-02T11:05:44.620Z,14.32
2023-05-02T11:06:44.754Z,14.30
2023-05-02T11:07:44.628Z,14.32
2023-05-02T11:08:44.600Z,14.32
2023-05-02T11:09:45.481Z,14.33
2023-05-02T11:10:44.558Z,14.35
2023-05-02T11:11:44.611Z,14.36
2023-05-02T11:12:44.703Z,14.43
2023-05-02T11:13:44.820Z,14.50
2023-05-02T11:14:50.940Z,14.58
2023-05-02T11:15:44.564Z,14.65
2023-05-02T11:16:44.608Z,14.62
2023-05-02T11:17:44.545Z,14.48
2023-05-02T11:18:44.540Z,14.41
2023-05-02T11:19:44.447Z,14.26
2023-05-02T11:20:45.455Z,14.15
2023-05-02T11:21:44.513Z,14.10
2023-05-02T11:22:44.421Z,14.08
2023-05-02T11:23:44.597Z,14.17
2023-05-02T11:24:44.479Z,14.29
2023-05-02T11:25:44.524Z,14.50
2023-05-02T11:26:45.398Z,14.73
2023-05-02T11:27:44.475Z,15.07
2023-05-02T11:28:44.457Z,15.35
2023-05-02T11:29:44.313Z,15.44
2023-05-02T11:30:44.336Z,15.35
2023-05-02T11:31:45.318Z,15.21
2023-05-02T11:32:44.383Z,15.06
2023-05-02T11:33:44.272Z,14.96
2023-05-02T11:34:44.274Z,14.85
2023-05-02T11:35:44.270Z,14.72
2023-05-02T11:36:44.272Z,14.65
2023-05-02T11:37:45.172Z,14.54
2023-05-02T11:38:44.242Z,14.48
2023-05-02T11:39:44.252Z,14.53
2023-05-02T11:40:44.266Z,14.60
2023-05-02T11:41:44.232Z,14.66
2023-05-02T11:42:45.133Z,14.78
2023-05-02T11:43:44.233Z,14.91
2023-05-02T11:44:44.150Z,15.07
2023-05-02T11:45:44.227Z,15.17
2023-05-02T11:46:44.215Z,15.24
2023-05-02T11:47:45.132Z,15.25
2023-05-02T11:48:44.118Z,15.27
2023-05-02T11:49:44.089Z,15.27
2023-05-02T11:50:49.306Z,15.27
2023-05-02T11:51:45.563Z,15.29
2023-05-02T11:52:44.982Z,15.35
2023-05-02T11:53:44.039Z,15.44
2023-05-02T11:54:44.079Z,15.51
2023-05-02T11:55:43.981Z,15.51
2023-05-02T11:56:44.148Z,15.55
2023-05-02T11:57:44.919Z,15.62
2023-05-02T11:58:43.949Z,15.65
2023-05-02T11:59:44.069Z,15.64
2023-05-02T12:00:43.999Z,15.65
2023-05-02T12:01:43.992Z,15.65
2023-05-02T12:02:43.993Z,15.64
2023-05-02T12:03:45.035Z,15.59
2023-05-02T12:04:43.923Z,15.46
2023-05-02T12:05:43.957Z,15.29
2023-05-02T12:06:43.899Z,15.11
2023-05-02T12:07:43.836Z,15.03
2023-05-02T12:08:43.858Z,14.96
2023-05-02T12:09:44.911Z,14.89
2023-05-02T12:10:43.845Z,14.94
2023-05-02T12:11:43.874Z,14.99
2023-05-02T12:12:43.777Z,15.07
2023-05-02T12:13:43.808Z,15.14
2023-05-02T12:14:44.781Z,15.18
2023-05-02T12:15:43.857Z,15.19
2023-05-02T12:16:43.866Z,15.19
2023-05-02T12:17:43.770Z,15.17
2023-05-02T12:18:43.725Z,15.17
2023-05-02T12:19:43.704Z,15.24
2023-05-02T12:20:44.717Z,15.36
2023-05-02T12:21:43.654Z,15.47
2023-05-02T12:22:43.719Z,15.55
2023-05-02T12:23:43.749Z,15.67
2023-05-02T12:24:43.694Z,15.75
2023-05-02T12:25:43.681Z,15.79
2023-05-02T12:26:44.582Z,15.90
2023-05-02T12:27:43.712Z,15.92
2023-05-02T12:28:43.606Z,15.92
2023-05-02T12:29:43.740Z,15.91
2023-05-02T12:30:43.728Z,15.90
2023-05-02T12:31:44.525Z,15.83
2023-05-02T12:32:44.672Z,15.80
2023-05-02T12:33:43.574Z,15.86
2023-05-02T12:34:43.626Z,15.95
2023-05-02T12:35:43.590Z,16.13
2023-05-02T12:36:43.507Z,16.31
2023-05-02T12:37:45.570Z,16.43
2023-05-02T12:38:43.505Z,16.65
2023-05-02T12:39:43.472Z,16.94
2023-05-02T12:40:43.515Z,17.51
2023-05-02T12:41:43.457Z,18.25
2023-05-02T12:42:43.388Z,18.65
2023-05-02T12:43:44.315Z,18.96
2023-05-02T12:44:43.458Z,18.98
2023-05-02T12:45:43.378Z,18.65
2023-05-02T12:46:43.440Z,18.70
2023-05-02T12:47:43.430Z,18.58
2023-05-02T12:48:44.231Z,18.40
2023-05-02T12:49:44.266Z,18.38
2023-05-02T12:50:43.305Z,18.05
2023-05-02T12:51:43.394Z,17.74
2023-05-02T12:52:43.272Z,17.56
2023-05-02T12:53:43.231Z,17.33
2023-05-02T12:54:44.647Z,17.26
2023-05-02T12:55:43.281Z,17.41
2023-05-02T12:56:43.234Z,17.85